sensor_id;sensor_type;location;lat;lon;timestamp;P1;durP1;ratioP1;P2;durP2;ratioP2
68653;SDS011;55636;51.108;13.622;2023-11-19T00:00:44;6.77;;;6.00;;
68653;SDS011;55636;51.108;13.622;2023-11-19T00:01:54;8.17;;;6.03;;
68653;SDS011;55636;51.108;13.622;2023-11-19T00:02:57;7.63;;;6.23;;
68653;SDS011;55636;51.108;13.622;2023-11-19T00:03:59;7.47;;;6.20;;
68653;SDS011;55636;51.108;13.622;2023-11-19T00:05:02;6.13;;;5.53;;
68653;SDS011;55636;51.108;13.622;2023-11-19T00:06:05;7.17;;;6.47;;
68653;SDS011;55636;51.108;13.622;2023-11-19T00:07:07;6.90;;;6.00;;
68653;SDS011;55636;51.108;13.622;2023-11-19T00:08:12;6.67;;;5.53;;
68653;SDS011;55636;51.108;13.622;2023-11-19T00:09:15;7.07;;;5.60;;
68653;SDS011;55636;51.108;13.622;2023-11-19T00:10:19;7.10;;;6.30;;
68653;SDS011;55636;51.108;13.622;2023-11-19T00:11:23;5.87;;;5.30;;
68653;SDS011;55636;51.108;13.622;2023-11-19T00:12:25;6.43;;;5.80;;
68653;SDS011;55636;51.108;13.622;2023-11-19T00:13:27;6.93;;;5.90;;
68653;SDS011;55636;51.108;13.622;2023-11-19T00:14:30;6.40;;;5.80;;
68653;SDS011;55636;51.108;13.622;2023-11-19T00:15:32;7.07;;;6.07;;
68653;SDS011;55636;51.108;13.622;2023-11-19T00:16:35;7.60;;;6.43;;
68653;SDS011;55636;51.108;13.622;2023-11-19T00:17:39;7.20;;;6.43;;
68653;SDS011;55636;51.108;13.622;2023-11-19T00:18:48;7.67;;;6.20;;
68653;SDS011;55636;51.108;13.622;2023-11-19T00:19:52;7.37;;;6.60;;
68653;SDS011;55636;51.108;13.622;2023-11-19T00:20:54;7.17;;;6.40;;
68653;SDS011;55636;51.108;13.622;2023-11-19T00:21:56;8.00;;;7.20;;
68653;SDS011;55636;51.108;13.622;2023-11-19T00:22:59;7.77;;;6.97;;
68653;SDS011;55636;51.108;13.622;2023-11-19T00:24:03;7.60;;;6.80;;
68653;SDS011;55636;51.108;13.622;2023-11-19T00:25:06;7.70;;;6.87;;
68653;SDS011;55636;51.108;13.622;2023-11-19T00:26:09;7.73;;;7.00;;
68653;SDS011;55636;51.108;13.622;2023-11-19T00:27:14;7.67;;;6.57;;
68653;SDS011;55636;51.108;13.622;2023-11-19T00:28:18;7.40;;;6.70;;
68653;SDS011;55636;51.108;13.622;2023-11-19T00:29:20;8.03;;;7.03;;
68653;SDS011;55636;51.108;13.622;2023-11-19T00:30:23;7.87;;;7.07;;
68653;SDS011;55636;51.108;13.622;2023-11-19T00:31:25;8.47;;;7.50;;
68653;SDS011;55636;51.108;13.622;2023-11-19T00:32:30;8.00;;;7.20;;
68653;SDS011;55636;51.108;13.622;2023-11-19T00:33:32;8.40;;;7.43;;
68653;SDS011;55636;51.108;13.622;2023-11-19T00:34:35;8.97;;;7.87;;
68653;SDS011;55636;51.108;13.622;2023-11-19T00:35:37;8.90;;;7.80;;
68653;SDS011;55636;51.108;13.622;2023-11-19T00:36:40;8.43;;;7.53;;
68653;SDS011;55636;51.108;13.622;2023-11-19T00:37:42;8.43;;;7.47;;
68653;SDS011;55636;51.108;13.622;2023-11-19T00:38:45;8.10;;;7.30;;
68653;SDS011;55636;51.108;13.622;2023-11-19T00:39:48;8.20;;;7.40;;
68653;SDS011;55636;51.108;13.622;2023-11-19T00:40:51;8.00;;;7.20;;
68653;SDS011;55636;51.108;13.622;2023-11-19T00:41:53;8.20;;;7.20;;
68653;SDS011;55636;51.108;13.622;2023-11-19T00:42:56;8.07;;;7.17;;
68653;SDS011;55636;51.108;13.622;2023-11-19T00:44:01;8.67;;;7.30;;
68653;SDS011;55636;51.108;13.622;2023-11-19T00:45:04;8.00;;;7.20;;
68653;SDS011;55636;51.108;13.622;2023-11-19T00:46:12;8.20;;;7.30;;
68653;SDS011;55636;51.108;13.622;2023-11-19T00:47:16;8.07;;;7.27;;
68653;SDS011;55636;51.108;13.622;2023-11-19T00:48:18;9.87;;;7.43;;
68653;SDS011;55636;51.108;13.622;2023-11-19T00:49:21;8.77;;;7.70;;
68653;SDS011;55636;51.108;13.622;2023-11-19T00:50:23;8.77;;;7.60;;
68653;SDS011;55636;51.108;13.622;2023-11-19T00:51:25;8.73;;;7.60;;
68653;SDS011;55636;51.108;13.622;2023-11-19T00:52:28;9.57;;;7.90;;
68653;SDS011;55636;51.108;13.622;2023-11-19T00:53:32;8.47;;;7.57;;
68653;SDS011;55636;51.108;13.622;2023-11-19T00:54:35;8.70;;;7.47;;
68653;SDS011;55636;51.108;13.622;2023-11-19T00:55:38;9.67;;;7.93;;
68653;SDS011;55636;51.108;13.622;2023-11-19T00:56:48;8.30;;;7.40;;
68653;SDS011;55636;51.108;13.622;2023-11-19T00:57:50;8.90;;;7.60;;
68653;SDS011;55636;51.108;13.622;2023-11-19T00:58:52;8.13;;;7.33;;
68653;SDS011;55636;51.108;13.622;2023-11-19T00:59:55;9.00;;;8.07;;
68653;SDS011;55636;51.108;13.622;2023-11-19T01:00:57;8.70;;;7.57;;
68653;SDS011;55636;51.108;13.622;2023-11-19T01:02:00;8.27;;;7.23;;
68653;SDS011;55636;51.108;13.622;2023-11-19T01:03:06;9.13;;;8.00;;
68653;SDS011;55636;51.108;13.622;2023-11-19T01:04:09;8.17;;;7.37;;
68653;SDS011;55636;51.108;13.622;2023-11-19T01:05:12;8.93;;;7.70;;
68653;SDS011;55636;51.108;13.622;2023-11-19T01:06:26;8.23;;;7.43;;
68653;SDS011;55636;51.108;13.622;2023-11-19T01:07:32;8.83;;;7.87;;
68653;SDS011;55636;51.108;13.622;2023-11-19T01:08:34;8.47;;;7.57;;
68653;SDS011;55636;51.108;13.622;2023-11-19T01:09:38;8.87;;;7.70;;
68653;SDS011;55636;51.108;13.622;2023-11-19T01:10:41;8.33;;;7.20;;
68653;SDS011;55636;51.108;13.622;2023-11-19T01:11:43;8.00;;;7.20;;
68653;SDS011;55636;51.108;13.622;2023-11-19T01:12:46;8.50;;;7.20;;
68653;SDS011;55636;51.108;13.622;2023-11-19T01:13:50;8.10;;;7.30;;
68653;SDS011;55636;51.108;13.622;2023-11-19T01:14:53;8.33;;;7.53;;
68653;SDS011;55636;51.108;13.622;2023-11-19T01:15:55;8.53;;;7.33;;
68653;SDS011;55636;51.108;13.622;2023-11-19T01:16:58;8.17;;;7.37;;
68653;SDS011;55636;51.108;13.622;2023-11-19T01:18:01;9.13;;;8.13;;
68653;SDS011;55636;51.108;13.622;2023-11-19T01:19:07;8.00;;;7.20;;
68653;SDS011;55636;51.108;13.622;2023-11-19T01:20:18;8.70;;;7.47;;
68653;SDS011;55636;51.108;13.622;2023-11-19T01:21:23;7.60;;;6.90;;
68653;SDS011;55636;51.108;13.622;2023-11-19T01:22:26;8.03;;;7.23;;
68653;SDS011;55636;51.108;13.622;2023-11-19T01:23:28;8.43;;;7.40;;
68653;SDS011;55636;51.108;13.622;2023-11-19T01:24:30;7.60;;;6.90;;
68653;SDS011;55636;51.108;13.622;2023-11-19T01:25:33;9.67;;;7.53;;
68653;SDS011;55636;51.108;13.622;2023-11-19T01:26:36;7.70;;;6.90;;
68653;SDS011;55636;51.108;13.622;2023-11-19T01:27:38;8.37;;;7.47;;
68653;SDS011;55636;51.108;13.622;2023-11-19T01:28:41;7.77;;;6.73;;
68653;SDS011;55636;51.108;13.622;2023-11-19T01:29:49;8.57;;;7.57;;
68653;SDS011;55636;51.108;13.622;2023-11-19T01:30:52;7.53;;;6.70;;
68653;SDS011;55636;51.108;13.622;2023-11-19T01:31:55;7.40;;;6.70;;
68653;SDS011;55636;51.108;13.622;2023-11-19T01:32:57;7.83;;;6.93;;
68653;SDS011;55636;51.108;13.622;2023-11-19T01:34:00;7.53;;;6.73;;
68653;SDS011;55636;51.108;13.622;2023-11-19T01:35:03;7.30;;;6.60;;
68653;SDS011;55636;51.108;13.622;2023-11-19T01:36:06;8.20;;;6.73;;
68653;SDS011;55636;51.108;13.622;2023-11-19T01:37:10;6.90;;;6.20;;
68653;SDS011;55636;51.108;13.622;2023-11-19T01:38:14;7.57;;;6.53;;
68653;SDS011;55636;51.108;13.622;2023-11-19T01:39:16;7.50;;;6.70;;
68653;SDS011;55636;51.108;13.622;2023-11-19T01:40:22;7.47;;;6.73;;
68653;SDS011;55636;51.108;13.622;2023-11-19T01:41:24;7.27;;;6.23;;
68653;SDS011;55636;51.108;13.622;2023-11-19T01:42:27;6.70;;;5.83;;
68653;SDS011;55636;51.108;13.622;2023-11-19T01:43:36;7.03;;;6.33;;
68653;SDS011;55636;51.108;13.622;2023-11-19T01:44:40;7.10;;;6.20;;
68653;SDS011;55636;51.108;13.622;2023-11-19T01:45:42;8.20;;;6.60;;
68653;SDS011;55636;51.108;13.622;2023-11-19T01:46:45;7.20;;;5.47;;
68653;SDS011;55636;51.108;13.622;2023-11-19T01:47:52;7.33;;;6.63;;
68653;SDS011;55636;51.108;13.622;2023-11-19T01:48:54;7.20;;;6.50;;
68653;SDS011;55636;51.108;13.622;2023-11-19T01:49:57;7.23;;;6.37;;
68653;SDS011;55636;51.108;13.622;2023-11-19T01:51:01;7.03;;;6.33;;
68653;SDS011;55636;51.108;13.622;2023-11-19T01:52:05;6.60;;;6.00;;
68653;SDS011;55636;51.108;13.622;2023-11-19T01:53:08;6.67;;;5.97;;
68653;SDS011;55636;51.108;13.622;2023-11-19T01:54:10;6.77;;;6.00;;
68653;SDS011;55636;51.108;13.622;2023-11-19T01:55:14;6.20;;;5.60;;
68653;SDS011;55636;51.108;13.622;2023-11-19T01:56:16;7.10;;;6.17;;
68653;SDS011;55636;51.108;13.622;2023-11-19T01:57:19;7.40;;;6.43;;
68653;SDS011;55636;51.108;13.622;2023-11-19T01:58:23;7.07;;;6.00;;
68653;SDS011;55636;51.108;13.622;2023-11-19T01:59:26;7.27;;;5.93;;
68653;SDS011;55636;51.108;13.622;2023-11-19T02:00:29;5.90;;;5.33;;
68653;SDS011;55636;51.108;13.622;2023-11-19T02:01:32;6.50;;;5.90;;
68653;SDS011;55636;51.108;13.622;2023-11-19T02:02:40;6.20;;;5.50;;
68653;SDS011;55636;51.108;13.622;2023-11-19T02:03:43;7.33;;;5.80;;
68653;SDS011;55636;51.108;13.622;2023-11-19T02:04:47;6.87;;;6.13;;
68653;SDS011;55636;51.108;13.622;2023-11-19T02:05:51;6.73;;;6.03;;
68653;SDS011;55636;51.108;13.622;2023-11-19T02:06:55;6.70;;;5.70;;
68653;SDS011;55636;51.108;13.622;2023-11-19T02:08:00;6.17;;;5.30;;
68653;SDS011;55636;51.108;13.622;2023-11-19T02:09:03;6.30;;;5.70;;
68653;SDS011;55636;51.108;13.622;2023-11-19T02:10:10;5.67;;;5.17;;
68653;SDS011;55636;51.108;13.622;2023-11-19T02:11:15;6.30;;;5.70;;
68653;SDS011;55636;51.108;13.622;2023-11-19T02:12:18;5.93;;;5.33;;
68653;SDS011;55636;51.108;13.622;2023-11-19T02:13:23;6.63;;;5.87;;
68653;SDS011;55636;51.108;13.622;2023-11-19T02:14:27;6.20;;;5.43;;
68653;SDS011;55636;51.108;13.622;2023-11-19T02:15:30;5.97;;;5.37;;
68653;SDS011;55636;51.108;13.622;2023-11-19T02:16:33;5.73;;;5.10;;
68653;SDS011;55636;51.108;13.622;2023-11-19T02:17:37;5.70;;;5.20;;
68653;SDS011;55636;51.108;13.622;2023-11-19T02:18:40;5.77;;;5.23;;
68653;SDS011;55636;51.108;13.622;2023-11-19T02:19:42;6.33;;;5.40;;
68653;SDS011;55636;51.108;13.622;2023-11-19T02:20:45;5.53;;;5.03;;
68653;SDS011;55636;51.108;13.622;2023-11-19T02:21:50;5.87;;;5.27;;
68653;SDS011;55636;51.108;13.622;2023-11-19T02:22:53;6.00;;;5.07;;
68653;SDS011;55636;51.108;13.622;2023-11-19T02:23:55;5.83;;;5.07;;
68653;SDS011;55636;51.108;13.622;2023-11-19T02:25:17;5.80;;;5.30;;
68653;SDS011;55636;51.108;13.622;2023-11-19T02:26:28;5.57;;;5.07;;
68653;SDS011;55636;51.108;13.622;2023-11-19T02:28:47;5.20;;;4.70;;
68653;SDS011;55636;51.108;13.622;2023-11-19T02:29:50;5.47;;;4.97;;
68653;SDS011;55636;51.108;13.622;2023-11-19T02:30:53;5.77;;;4.90;;
68653;SDS011;55636;51.108;13.622;2023-11-19T02:31:55;5.23;;;4.73;;
68653;SDS011;55636;51.108;13.622;2023-11-19T02:32:59;4.93;;;4.43;;
68653;SDS011;55636;51.108;13.622;2023-11-19T02:34:07;4.80;;;4.40;;
68653;SDS011;55636;51.108;13.622;2023-11-19T02:35:14;4.87;;;4.33;;
68653;SDS011;55636;51.108;13.622;2023-11-19T02:36:17;5.00;;;4.50;;
68653;SDS011;55636;51.108;13.622;2023-11-19T02:37:19;4.57;;;4.17;;
68653;SDS011;55636;51.108;13.622;2023-11-19T02:38:22;4.83;;;4.33;;
68653;SDS011;55636;51.108;13.622;2023-11-19T02:39:24;5.63;;;4.37;;
68653;SDS011;55636;51.108;13.622;2023-11-19T02:40:28;4.70;;;4.23;;
68653;SDS011;55636;51.108;13.622;2023-11-19T02:41:31;5.50;;;4.90;;
68653;SDS011;55636;51.108;13.622;2023-11-19T02:42:34;5.37;;;4.73;;
68653;SDS011;55636;51.108;13.622;2023-11-19T02:43:36;5.30;;;4.57;;
68653;SDS011;55636;51.108;13.622;2023-11-19T02:44:43;4.60;;;4.20;;
68653;SDS011;55636;51.108;13.622;2023-11-19T02:45:46;5.03;;;4.33;;
68653;SDS011;55636;51.108;13.622;2023-11-19T02:46:48;4.57;;;4.10;;
68653;SDS011;55636;51.108;13.622;2023-11-19T02:47:51;5.13;;;4.20;;
68653;SDS011;55636;51.108;13.622;2023-11-19T02:48:54;5.07;;;4.40;;
68653;SDS011;55636;51.108;13.622;2023-11-19T02:49:58;4.53;;;4.00;;
68653;SDS011;55636;51.108;13.622;2023-11-19T02:51:03;4.67;;;3.93;;
68653;SDS011;55636;51.108;13.622;2023-11-19T02:52:07;3.80;;;3.50;;
68653;SDS011;55636;51.108;13.622;2023-11-19T02:53:12;4.13;;;3.67;;
68653;SDS011;55636;51.108;13.622;2023-11-19T02:54:15;4.27;;;3.87;;
68653;SDS011;55636;51.108;13.622;2023-11-19T02:55:17;4.17;;;3.77;;
68653;SDS011;55636;51.108;13.622;2023-11-19T02:56:21;4.03;;;3.67;;
68653;SDS011;55636;51.108;13.622;2023-11-19T02:57:36;3.50;;;3.20;;
68653;SDS011;55636;51.108;13.622;2023-11-19T02:58:39;3.70;;;3.33;;
68653;SDS011;55636;51.108;13.622;2023-11-19T02:59:42;3.80;;;3.37;;
68653;SDS011;55636;51.108;13.622;2023-11-19T03:00:45;4.13;;;3.70;;
68653;SDS011;55636;51.108;13.622;2023-11-19T03:01:59;3.43;;;3.13;;
68653;SDS011;55636;51.108;13.622;2023-11-19T03:03:02;3.40;;;3.10;;
68653;SDS011;55636;51.108;13.622;2023-11-19T03:04:12;3.30;;;3.00;;
68653;SDS011;55636;51.108;13.622;2023-11-19T03:05:19;3.47;;;3.17;;
68653;SDS011;55636;51.108;13.622;2023-11-19T03:06:22;3.53;;;3.00;;
68653;SDS011;55636;51.108;13.622;2023-11-19T03:07:24;3.13;;;2.83;;
68653;SDS011;55636;51.108;13.622;2023-11-19T03:08:26;3.40;;;3.10;;
68653;SDS011;55636;51.108;13.622;2023-11-19T03:09:29;3.40;;;3.10;;
68653;SDS011;55636;51.108;13.622;2023-11-19T03:10:31;3.33;;;2.93;;
68653;SDS011;55636;51.108;13.622;2023-11-19T03:11:34;3.33;;;2.73;;
68653;SDS011;55636;51.108;13.622;2023-11-19T03:12:37;3.07;;;2.77;;
68653;SDS011;55636;51.108;13.622;2023-11-19T03:13:39;3.00;;;2.70;;
68653;SDS011;55636;51.108;13.622;2023-11-19T03:14:42;2.70;;;2.50;;
68653;SDS011;55636;51.108;13.622;2023-11-19T03:15:44;2.63;;;2.43;;
68653;SDS011;55636;51.108;13.622;2023-11-19T03:16:48;2.77;;;2.53;;
68653;SDS011;55636;51.108;13.622;2023-11-19T03:17:51;2.60;;;2.40;;
68653;SDS011;55636;51.108;13.622;2023-11-19T03:18:53;2.50;;;2.30;;
68653;SDS011;55636;51.108;13.622;2023-11-19T03:19:58;2.80;;;2.50;;
68653;SDS011;55636;51.108;13.622;2023-11-19T03:21:00;2.60;;;2.40;;
68653;SDS011;55636;51.108;13.622;2023-11-19T03:22:03;2.60;;;2.40;;
68653;SDS011;55636;51.108;13.622;2023-11-19T03:23:06;2.60;;;2.40;;
68653;SDS011;55636;51.108;13.622;2023-11-19T03:24:09;2.87;;;2.60;;
68653;SDS011;55636;51.108;13.622;2023-11-19T03:25:11;2.43;;;2.23;;
68653;SDS011;55636;51.108;13.622;2023-11-19T03:26:15;2.83;;;2.50;;
68653;SDS011;55636;51.108;13.622;2023-11-19T03:27:17;2.90;;;2.60;;
68653;SDS011;55636;51.108;13.622;2023-11-19T03:28:19;2.90;;;2.60;;
68653;SDS011;55636;51.108;13.622;2023-11-19T03:29:22;2.60;;;2.40;;
68653;SDS011;55636;51.108;13.622;2023-11-19T03:30:25;2.77;;;2.57;;
68653;SDS011;55636;51.108;13.622;2023-11-19T03:31:35;2.30;;;2.10;;
68653;SDS011;55636;51.108;13.622;2023-11-19T03:32:38;3.07;;;2.23;;
68653;SDS011;55636;51.108;13.622;2023-11-19T03:33:41;2.63;;;2.40;;
68653;SDS011;55636;51.108;13.622;2023-11-19T03:34:43;2.50;;;2.30;;
68653;SDS011;55636;51.108;13.622;2023-11-19T03:35:46;2.70;;;2.50;;
68653;SDS011;55636;51.108;13.622;2023-11-19T03:36:49;2.40;;;2.20;;
68653;SDS011;55636;51.108;13.622;2023-11-19T03:37:51;2.40;;;2.10;;
68653;SDS011;55636;51.108;13.622;2023-11-19T03:38:54;2.60;;;2.40;;
68653;SDS011;55636;51.108;13.622;2023-11-19T03:39:56;2.50;;;2.30;;
68653;SDS011;55636;51.108;13.622;2023-11-19T03:41:10;2.67;;;2.47;;
68653;SDS011;55636;51.108;13.622;2023-11-19T03:42:13;2.40;;;2.20;;
68653;SDS011;55636;51.108;13.622;2023-11-19T03:43:16;2.27;;;2.07;;
68653;SDS011;55636;51.108;13.622;2023-11-19T03:44:18;2.27;;;2.07;;
68653;SDS011;55636;51.108;13.622;2023-11-19T03:45:21;2.87;;;2.30;;
68653;SDS011;55636;51.108;13.622;2023-11-19T03:46:24;2.27;;;2.07;;
68653;SDS011;55636;51.108;13.622;2023-11-19T03:47:26;2.57;;;2.37;;
68653;SDS011;55636;51.108;13.622;2023-11-19T03:48:29;2.40;;;2.20;;
68653;SDS011;55636;51.108;13.622;2023-11-19T03:49:32;2.30;;;2.10;;
68653;SDS011;55636;51.108;13.622;2023-11-19T03:50:34;2.77;;;2.03;;
68653;SDS011;55636;51.108;13.622;2023-11-19T03:51:37;2.77;;;2.50;;
68653;SDS011;55636;51.108;13.622;2023-11-19T03:52:39;2.53;;;2.10;;
68653;SDS011;55636;51.108;13.622;2023-11-19T03:53:45;2.43;;;2.23;;
68653;SDS011;55636;51.108;13.622;2023-11-19T03:54:48;2.37;;;2.17;;
68653;SDS011;55636;51.108;13.622;2023-11-19T03:55:50;3.60;;;2.40;;
68653;SDS011;55636;51.108;13.622;2023-11-19T03:56:53;2.37;;;2.17;;
68653;SDS011;55636;51.108;13.622;2023-11-19T03:57:55;2.40;;;2.20;;
68653;SDS011;55636;51.108;13.622;2023-11-19T03:58:58;2.27;;;1.90;;
68653;SDS011;55636;51.108;13.622;2023-11-19T04:00:00;2.33;;;1.90;;
68653;SDS011;55636;51.108;13.622;2023-11-19T04:01:13;2.20;;;2.00;;
68653;SDS011;55636;51.108;13.622;2023-11-19T04:02:16;1.93;;;1.83;;
68653;SDS011;55636;51.108;13.622;2023-11-19T04:03:19;2.20;;;2.00;;
68653;SDS011;55636;51.108;13.622;2023-11-19T04:04:22;2.30;;;2.10;;
68653;SDS011;55636;51.108;13.622;2023-11-19T04:05:24;2.10;;;1.90;;
68653;SDS011;55636;51.108;13.622;2023-11-19T04:06:26;2.20;;;2.00;;
68653;SDS011;55636;51.108;13.622;2023-11-19T04:07:29;2.23;;;2.03;;
68653;SDS011;55636;51.108;13.622;2023-11-19T04:08:31;2.00;;;1.80;;
68653;SDS011;55636;51.108;13.622;2023-11-19T04:09:34;2.40;;;2.20;;
68653;SDS011;55636;51.108;13.622;2023-11-19T04:10:36;2.03;;;1.90;;
68653;SDS011;55636;51.108;13.622;2023-11-19T04:11:38;2.00;;;1.80;;
68653;SDS011;55636;51.108;13.622;2023-11-19T04:12:42;2.17;;;1.97;;
68653;SDS011;55636;51.108;13.622;2023-11-19T04:13:45;2.20;;;2.00;;
68653;SDS011;55636;51.108;13.622;2023-11-19T04:14:48;1.93;;;1.80;;
68653;SDS011;55636;51.108;13.622;2023-11-19T04:16:02;2.80;;;2.00;;
68653;SDS011;55636;51.108;13.622;2023-11-19T04:17:05;1.93;;;1.83;;
68653;SDS011;55636;51.108;13.622;2023-11-19T04:18:07;2.33;;;1.93;;
68653;SDS011;55636;51.108;13.622;2023-11-19T04:19:11;2.20;;;2.03;;
68653;SDS011;55636;51.108;13.622;2023-11-19T04:20:13;2.20;;;2.00;;
68653;SDS011;55636;51.108;13.622;2023-11-19T04:21:17;2.20;;;2.00;;
68653;SDS011;55636;51.108;13.622;2023-11-19T04:22:19;2.10;;;2.00;;
68653;SDS011;55636;51.108;13.622;2023-11-19T04:23:21;2.10;;;1.90;;
68653;SDS011;55636;51.108;13.622;2023-11-19T04:24:24;2.00;;;1.90;;
68653;SDS011;55636;51.108;13.622;2023-11-19T04:25:26;2.23;;;2.03;;
68653;SDS011;55636;51.108;13.622;2023-11-19T04:26:29;2.40;;;1.93;;
68653;SDS011;55636;51.108;13.622;2023-11-19T04:27:33;2.30;;;2.10;;
68653;SDS011;55636;51.108;13.622;2023-11-19T04:28:35;2.37;;;2.17;;
68653;SDS011;55636;51.108;13.622;2023-11-19T04:29:38;2.30;;;2.10;;
68653;SDS011;55636;51.108;13.622;2023-11-19T04:30:40;1.93;;;1.80;;
68653;SDS011;55636;51.108;13.622;2023-11-19T04:31:43;2.30;;;2.10;;
68653;SDS011;55636;51.108;13.622;2023-11-19T04:32:46;2.10;;;1.90;;
68653;SDS011;55636;51.108;13.622;2023-11-19T04:33:51;2.30;;;2.10;;
68653;SDS011;55636;51.108;13.622;2023-11-19T04:34:54;2.43;;;2.20;;
68653;SDS011;55636;51.108;13.622;2023-11-19T04:35:56;2.27;;;2.07;;
68653;SDS011;55636;51.108;13.622;2023-11-19T04:36:59;2.33;;;2.13;;
68653;SDS011;55636;51.108;13.622;2023-11-19T04:38:14;2.20;;;2.07;;
68653;SDS011;55636;51.108;13.622;2023-11-19T04:39:17;2.33;;;2.13;;
68653;SDS011;55636;51.108;13.622;2023-11-19T04:40:21;2.30;;;2.10;;
68653;SDS011;55636;51.108;13.622;2023-11-19T04:41:25;2.40;;;2.20;;
68653;SDS011;55636;51.108;13.622;2023-11-19T04:42:29;2.47;;;2.27;;
68653;SDS011;55636;51.108;13.622;2023-11-19T04:43:34;2.50;;;2.30;;
68653;SDS011;55636;51.108;13.622;2023-11-19T04:44:37;2.60;;;2.40;;
68653;SDS011;55636;51.108;13.622;2023-11-19T04:45:39;2.70;;;2.50;;
68653;SDS011;55636;51.108;13.622;2023-11-19T04:46:42;2.67;;;2.47;;
68653;SDS011;55636;51.108;13.622;2023-11-19T04:47:46;2.87;;;2.57;;
68653;SDS011;55636;51.108;13.622;2023-11-19T04:48:49;3.30;;;3.00;;
68653;SDS011;55636;51.108;13.622;2023-11-19T04:49:52;2.80;;;2.60;;
68653;SDS011;55636;51.108;13.622;2023-11-19T04:50:54;2.90;;;2.60;;
68653;SDS011;55636;51.108;13.622;2023-11-19T04:51:56;2.73;;;2.53;;
68653;SDS011;55636;51.108;13.622;2023-11-19T04:52:59;2.70;;;2.50;;
68653;SDS011;55636;51.108;13.622;2023-11-19T04:54:02;3.20;;;2.90;;
68653;SDS011;55636;51.108;13.622;2023-11-19T04:55:05;3.03;;;2.70;;
68653;SDS011;55636;51.108;13.622;2023-11-19T04:56:08;3.37;;;3.00;;
68653;SDS011;55636;51.108;13.622;2023-11-19T04:57:11;3.00;;;2.70;;
68653;SDS011;55636;51.108;13.622;2023-11-19T04:58:14;3.30;;;3.00;;
68653;SDS011;55636;51.108;13.622;2023-11-19T04:59:17;3.20;;;2.90;;
68653;SDS011;55636;51.108;13.622;2023-11-19T05:00:19;3.50;;;3.10;;
68653;SDS011;55636;51.108;13.622;2023-11-19T05:01:25;3.13;;;2.80;;
68653;SDS011;55636;51.108;13.622;2023-11-19T05:02:27;3.43;;;3.13;;
68653;SDS011;55636;51.108;13.622;2023-11-19T05:03:30;3.53;;;2.93;;
68653;SDS011;55636;51.108;13.622;2023-11-19T05:04:34;3.57;;;3.10;;
68653;SDS011;55636;51.108;13.622;2023-11-19T05:05:36;3.47;;;2.80;;
68653;SDS011;55636;51.108;13.622;2023-11-19T05:06:39;3.57;;;3.20;;
68653;SDS011;55636;51.108;13.622;2023-11-19T05:07:41;3.37;;;3.03;;
68653;SDS011;55636;51.108;13.622;2023-11-19T05:08:44;3.47;;;3.17;;
68653;SDS011;55636;51.108;13.622;2023-11-19T05:09:46;3.60;;;3.30;;
68653;SDS011;55636;51.108;13.622;2023-11-19T05:10:49;3.50;;;3.20;;
68653;SDS011;55636;51.108;13.622;2023-11-19T05:11:51;3.30;;;3.00;;
68653;SDS011;55636;51.108;13.622;2023-11-19T05:12:53;4.73;;;3.40;;
68653;SDS011;55636;51.108;13.622;2023-11-19T05:13:58;3.20;;;2.97;;
68653;SDS011;55636;51.108;13.622;2023-11-19T05:15:00;4.23;;;3.10;;
68653;SDS011;55636;51.108;13.622;2023-11-19T05:16:03;3.67;;;3.20;;
68653;SDS011;55636;51.108;13.622;2023-11-19T05:17:06;3.60;;;3.30;;
68653;SDS011;55636;51.108;13.622;2023-11-19T05:18:10;3.37;;;3.07;;
68653;SDS011;55636;51.108;13.622;2023-11-19T05:19:12;3.60;;;3.10;;
68653;SDS011;55636;51.108;13.622;2023-11-19T05:20:16;3.40;;;3.10;;
68653;SDS011;55636;51.108;13.622;2023-11-19T05:21:18;3.03;;;2.73;;
68653;SDS011;55636;51.108;13.622;2023-11-19T05:22:21;3.30;;;2.90;;
68653;SDS011;55636;51.108;13.622;2023-11-19T05:23:24;3.20;;;2.83;;
68653;SDS011;55636;51.108;13.622;2023-11-19T05:24:26;3.00;;;2.70;;
68653;SDS011;55636;51.108;13.622;2023-11-19T05:25:28;3.20;;;2.90;;
68653;SDS011;55636;51.108;13.622;2023-11-19T05:26:31;3.83;;;2.97;;
68653;SDS011;55636;51.108;13.622;2023-11-19T05:27:34;3.30;;;3.00;;
68653;SDS011;55636;51.108;13.622;2023-11-19T05:28:38;3.30;;;3.00;;
68653;SDS011;55636;51.108;13.622;2023-11-19T05:29:41;3.63;;;3.00;;
68653;SDS011;55636;51.108;13.622;2023-11-19T05:30:44;3.30;;;3.00;;
68653;SDS011;55636;51.108;13.622;2023-11-19T05:31:47;3.00;;;2.80;;
68653;SDS011;55636;51.108;13.622;2023-11-19T05:32:50;4.30;;;3.13;;
68653;SDS011;55636;51.108;13.622;2023-11-19T05:33:52;5.07;;;3.10;;
68653;SDS011;55636;51.108;13.622;2023-11-19T05:34:54;3.37;;;3.07;;
68653;SDS011;55636;51.108;13.622;2023-11-19T05:35:57;3.13;;;2.87;;
68653;SDS011;55636;51.108;13.622;2023-11-19T05:36:59;3.20;;;2.90;;
68653;SDS011;55636;51.108;13.622;2023-11-19T05:38:02;3.30;;;3.00;;
68653;SDS011;55636;51.108;13.622;2023-11-19T05:39:04;3.73;;;2.97;;
68653;SDS011;55636;51.108;13.622;2023-11-19T05:40:07;3.20;;;2.90;;
68653;SDS011;55636;51.108;13.622;2023-11-19T05:41:17;4.47;;;3.00;;
68653;SDS011;55636;51.108;13.622;2023-11-19T05:42:19;2.90;;;2.60;;
68653;SDS011;55636;51.108;13.622;2023-11-19T05:43:22;3.47;;;2.97;;
68653;SDS011;55636;51.108;13.622;2023-11-19T05:44:24;3.00;;;2.70;;
68653;SDS011;55636;51.108;13.622;2023-11-19T05:45:27;3.07;;;2.77;;
68653;SDS011;55636;51.108;13.622;2023-11-19T05:46:29;3.20;;;2.90;;
68653;SDS011;55636;51.108;13.622;2023-11-19T05:47:32;3.13;;;2.87;;
68653;SDS011;55636;51.108;13.622;2023-11-19T05:48:34;3.23;;;2.93;;
68653;SDS011;55636;51.108;13.622;2023-11-19T05:49:37;3.20;;;2.90;;
68653;SDS011;55636;51.108;13.622;2023-11-19T05:52:02;3.30;;;3.00;;
68653;SDS011;55636;51.108;13.622;2023-11-19T05:53:05;2.80;;;2.60;;
68653;SDS011;55636;51.108;13.622;2023-11-19T05:54:11;3.30;;;2.97;;
68653;SDS011;55636;51.108;13.622;2023-11-19T05:55:13;3.20;;;2.90;;
68653;SDS011;55636;51.108;13.622;2023-11-19T05:56:16;3.00;;;2.70;;
68653;SDS011;55636;51.108;13.622;2023-11-19T05:57:23;3.27;;;2.97;;
68653;SDS011;55636;51.108;13.622;2023-11-19T05:58:27;3.17;;;2.90;;
68653;SDS011;55636;51.108;13.622;2023-11-19T05:59:34;3.17;;;2.87;;
68653;SDS011;55636;51.108;13.622;2023-11-19T06:00:38;3.90;;;3.00;;
68653;SDS011;55636;51.108;13.622;2023-11-19T06:01:42;2.63;;;2.43;;
68653;SDS011;55636;51.108;13.622;2023-11-19T06:02:45;3.50;;;3.20;;
68653;SDS011;55636;51.108;13.622;2023-11-19T06:03:47;2.90;;;2.70;;
68653;SDS011;55636;51.108;13.622;2023-11-19T06:04:52;3.30;;;2.80;;
68653;SDS011;55636;51.108;13.622;2023-11-19T06:05:55;3.10;;;2.80;;
68653;SDS011;55636;51.108;13.622;2023-11-19T06:06:57;3.13;;;2.83;;
68653;SDS011;55636;51.108;13.622;2023-11-19T06:08:00;3.20;;;2.90;;
68653;SDS011;55636;51.108;13.622;2023-11-19T06:09:03;3.83;;;3.23;;
68653;SDS011;55636;51.108;13.622;2023-11-19T06:10:09;3.50;;;3.20;;
68653;SDS011;55636;51.108;13.622;2023-11-19T06:11:13;3.37;;;3.07;;
68653;SDS011;55636;51.108;13.622;2023-11-19T06:12:20;3.20;;;3.00;;
68653;SDS011;55636;51.108;13.622;2023-11-19T06:13:23;3.30;;;3.00;;
68653;SDS011;55636;51.108;13.622;2023-11-19T06:14:27;4.17;;;3.30;;
68653;SDS011;55636;51.108;13.622;2023-11-19T06:15:30;3.40;;;3.10;;
68653;SDS011;55636;51.108;13.622;2023-11-19T06:16:33;3.43;;;3.13;;
68653;SDS011;55636;51.108;13.622;2023-11-19T06:17:36;3.50;;;3.20;;
68653;SDS011;55636;51.108;13.622;2023-11-19T06:18:39;3.60;;;3.30;;
68653;SDS011;55636;51.108;13.622;2023-11-19T06:19:42;3.40;;;3.10;;